createdAt,value
2023-03-06T00:00:35.578Z,72.73
2023-03-06T00:03:02.474Z,72.70
2023-03-06T00:05:29.355Z,72.57
2023-03-06T00:07:56.209Z,72.56
2023-03-06T00:10:25.576Z,72.53
2023-03-06T00:12:53.246Z,72.61
2023-03-06T00:15:20.545Z,72.53
2023-03-06T00:17:47.489Z,72.54
2023-03-06T00:20:15.069Z,72.68
2023-03-06T00:22:41.900Z,72.42
2023-03-06T00:25:12.656Z,72.72
2023-03-06T00:27:39.525Z,72.54
2023-03-06T00:30:07.043Z,72.28
2023-03-06T00:32:34.280Z,72.17
2023-03-06T00:35:02.072Z,72.12
2023-03-06T00:37:28.787Z,71.48
2023-03-06T00:39:55.828Z,72.06
2023-03-06T00:42:22.669Z,72.01
2023-03-06T00:44:51.162Z,72.44
2023-03-06T00:47:17.971Z,72.98
2023-03-06T00:49:44.992Z,73.11
2023-03-06T00:52:12.908Z,73.01
2023-03-06T00:54:39.961Z,72.79
2023-03-06T00:57:06.788Z,72.83
2023-03-06T00:59:33.467Z,73.12
2023-03-06T01:02:00.312Z,73.21
2023-03-06T01:04:27.473Z,73.34
2023-03-06T01:06:54.090Z,73.28
2023-03-06T01:09:20.968Z,73.11
2023-03-06T01:11:47.680Z,73.30
2023-03-06T01:14:14.418Z,73.11
2023-03-06T01:16:42.020Z,73.25
2023-03-06T01:19:09.669Z,73.74
2023-03-06T01:21:36.540Z,74.39
2023-03-06T01:24:03.336Z,74.13
2023-03-06T01:26:30.101Z,73.89
2023-03-06T01:28:57.512Z,73.70
2023-03-06T01:31:25.334Z,74.07
2023-03-06T01:33:52.573Z,73.92
2023-03-06T01:36:19.370Z,74.21
2023-03-06T01:38:46.053Z,74.45
2023-03-06T01:41:15.851Z,74.30
2023-03-06T01:43:46.394Z,74.61
2023-03-06T01:46:33.805Z,74.71
2023-03-06T01:49:08.260Z,73.99
2023-03-06T01:51:48.649Z,74.99
2023-03-06T01:54:19.553Z,74.66
2023-03-06T01:56:47.174Z,74.17
2023-03-06T01:59:14.622Z,73.82
2023-03-06T02:01:41.684Z,73.92
2023-03-06T02:04:08.914Z,74.04
2023-03-06T02:06:38.484Z,74.54
2023-03-06T02:09:06.402Z,74.14
2023-03-06T02:11:33.406Z,74.23
2023-03-06T02:14:00.408Z,74.26
2023-03-06T02:16:29.774Z,74.56
2023-03-06T02:18:58.812Z,74.66
2023-03-06T02:21:35.823Z,74.40
2023-03-06T02:24:13.609Z,74.86
2023-03-06T02:26:42.267Z,74.89
2023-03-06T02:29:09.719Z,74.34
2023-03-06T02:31:36.463Z,74.76
2023-03-06T02:34:23.479Z,75.16
2023-03-06T02:36:54.070Z,74.69
2023-03-06T02:39:23.094Z,75.15
2023-03-06T02:41:49.821Z,75.00
2023-03-06T02:44:17.893Z,74.94
2023-03-06T02:46:44.706Z,75.42
2023-03-06T02:49:11.542Z,75.30
2023-03-06T02:51:38.189Z,75.30
2023-03-06T02:54:05.938Z,75.18
2023-03-06T02:56:32.684Z,74.96
2023-03-06T02:58:59.420Z,75.08
2023-03-06T03:01:26.238Z,75.09
2023-03-06T03:03:53.110Z,75.01
2023-03-06T03:06:21.100Z,74.87
2023-03-06T03:08:48.937Z,74.86
2023-03-06T03:11:16.113Z,74.96
2023-03-06T03:13:44.399Z,75.20
2023-03-06T03:16:17.908Z,75.29
2023-03-06T03:18:44.957Z,75.16
2023-03-06T03:21:13.520Z,74.98
2023-03-06T03:23:40.809Z,75.43
2023-03-06T03:26:09.034Z,75.81
2023-03-06T03:28:37.842Z,75.41
2023-03-06T03:31:07.278Z,75.25
2023-03-06T03:33:34.705Z,75.38
2023-03-06T03:36:03.076Z,75.15
2023-03-06T03:38:30.355Z,76.53
2023-03-06T03:40:57.301Z,76.83
2023-03-06T03:43:24.320Z,76.48
2023-03-06T03:45:57.422Z,77.03
2023-03-06T03:48:24.494Z,76.97
2023-03-06T03:50:51.703Z,76.74
2023-03-06T03:53:20.165Z,76.64
2023-03-06T03:55:48.718Z,76.28
2023-03-06T03:58:17.774Z,75.97
2023-03-06T04:00:44.902Z,75.88
2023-03-06T04:03:14.328Z,76.48
2023-03-06T04:05:44.090Z,76.57
2023-03-06T04:08:13.590Z,76.26
2023-03-06T04:10:43.498Z,76.01
2023-03-06T04:13:11.884Z,76.15
2023-03-06T04:15:42.467Z,76.06
2023-03-06T04:18:10.183Z,75.99
2023-03-06T04:20:36.955Z,76.20
2023-03-06T04:23:05.439Z,75.82
2023-03-06T04:25:32.314Z,76.13
2023-03-06T04:28:01.958Z,75.87
2023-03-06T04:30:30.223Z,75.44
2023-03-06T04:32:57.447Z,75.56
2023-03-06T04:35:24.892Z,75.38
2023-03-06T04:37:58.010Z,75.75
2023-03-06T04:40:28.866Z,76.35
2023-03-06T04:42:59.605Z,76.45
2023-03-06T04:45:28.866Z,76.47
2023-03-06T04:47:56.206Z,76.13
2023-03-06T04:50:23.977Z,76.12
2023-03-06T04:52:51.538Z,76.29
2023-03-06T04:55:19.127Z,76.01
2023-03-06T04:57:47.153Z,76.25
2023-03-06T05:00:17.041Z,76.29
2023-03-06T05:02:44.478Z,76.50
2023-03-06T05:05:12.370Z,77.02
2023-03-06T05:07:39.758Z,76.81
2023-03-06T05:10:07.665Z,76.98
2023-03-06T05:12:37.816Z,77.02
2023-03-06T05:15:05.933Z,76.67
2023-03-06T05:17:32.674Z,76.70
2023-03-06T05:19:59.328Z,76.67
2023-03-06T05:22:26.046Z,76.44
2023-03-06T05:24:52.790Z,76.47
2023-03-06T05:27:19.462Z,76.15
2023-03-06T05:29:46.189Z,76.37
2023-03-06T05:32:12.976Z,76.53
2023-03-06T05:34:39.908Z,76.31
2023-03-06T05:37:06.603Z,76.33
2023-03-06T05:39:33.287Z,76.60
2023-03-06T05:41:59.966Z,76.25
2023-03-06T05:44:34.370Z,76.13
2023-03-06T05:47:01.554Z,76.05
2023-03-06T05:49:31.994Z,76.22
2023-03-06T05:51:58.668Z,76.15
2023-03-06T05:54:26.228Z,76.13
2023-03-06T05:56:53.047Z,76.47
2023-03-06T05:59:19.793Z,76.24
2023-03-06T06:01:46.483Z,76.10
2023-03-06T06:04:13.180Z,76.05
2023-03-06T06:06:39.873Z,76.02
2023-03-06T06:09:06.692Z,76.05
2023-03-06T06:11:33.364Z,76.00
2023-03-06T06:14:00.062Z,76.17
2023-03-06T06:16:26.776Z,76.11
2023-03-06T06:18:53.414Z,76.24
2023-03-06T06:21:20.700Z,76.29
2023-03-06T06:23:47.504Z,76.29
2023-03-06T06:26:14.321Z,76.58
2023-03-06T06:28:41.013Z,76.97
2023-03-06T06:31:10.401Z,76.96
2023-03-06T06:33:37.122Z,77.16
2023-03-06T06:36:04.057Z,77.35
2023-03-06T06:38:30.841Z,77.59
2023-03-06T06:41:27.145Z,77.24
2023-03-06T06:43:44.266Z,77.35
2023-03-06T06:46:47.184Z,77.34
2023-03-06T06:48:58.522Z,77.52
2023-03-06T06:51:25.216Z,77.49
2023-03-06T06:53:52.120Z,77.52
2023-03-06T06:56:18.818Z,77.62
2023-03-06T06:58:45.520Z,77.64
2023-03-06T07:01:13.136Z,77.17
2023-03-06T07:03:40.759Z,76.94
2023-03-06T07:06:07.426Z,76.80
2023-03-06T07:08:34.183Z,76.62
2023-03-06T07:11:06.108Z,76.88
2023-03-06T07:13:32.752Z,77.50
2023-03-06T07:15:59.481Z,77.76
2023-03-06T07:18:26.200Z,78.38
2023-03-06T07:20:56.719Z,78.55
2023-03-06T07:23:24.816Z,78.78
2023-03-06T07:25:51.511Z,78.76
2023-03-06T07:28:19.555Z,79.04
2023-03-06T07:30:46.356Z,79.31
2023-03-06T07:33:13.476Z,78.84
2023-03-06T07:35:41.495Z,79.00
2023-03-06T07:38:09.070Z,79.02
2023-03-06T07:40:35.865Z,78.83
2023-03-06T07:43:18.416Z,78.79
2023-03-06T07:45:59.973Z,79.38
2023-03-06T07:48:27.487Z,78.77
2023-03-06T07:51:00.253Z,78.58
2023-03-06T07:53:27.187Z,78.64
2023-03-06T07:55:53.879Z,78.55
2023-03-06T07:58:20.870Z,78.85
2023-03-06T08:00:47.960Z,79.23
2023-03-06T08:03:14.980Z,79.49
2023-03-06T08:05:41.953Z,79.71
2023-03-06T08:08:08.787Z,79.45
2023-03-06T08:10:35.544Z,79.63
2023-03-06T08:13:02.249Z,79.80
2023-03-06T08:15:28.934Z,79.50
2023-03-06T08:17:55.747Z,78.86
2023-03-06T08:20:22.497Z,78.33
2023-03-06T08:22:49.170Z,77.65
2023-03-06T08:25:16.033Z,77.09
2023-03-06T08:27:43.258Z,77.01
2023-03-06T08:30:10.520Z,76.57
2023-03-06T08:32:37.482Z,76.36
2023-03-06T08:35:05.141Z,76.27
2023-03-06T08:37:31.959Z,76.32
2023-03-06T08:39:58.841Z,76.22
2023-03-06T08:42:25.546Z,76.05
2023-03-06T08:44:52.270Z,76.17
2023-03-06T08:47:19.062Z,75.84
2023-03-06T08:49:45.868Z,76.05
2023-03-06T08:52:12.702Z,75.61
2023-03-06T08:54:39.670Z,75.63
2023-03-06T08:57:06.837Z,75.55
2023-03-06T08:59:33.666Z,75.67
2023-03-06T09:02:00.488Z,75.49
2023-03-06T09:04:29.948Z,75.52
2023-03-06T09:06:56.708Z,75.26
2023-03-06T09:09:23.406Z,75.40
2023-03-06T09:11:51.216Z,75.21
2023-03-06T09:14:17.932Z,75.04
2023-03-06T09:16:44.643Z,74.90
2023-03-06T09:19:11.402Z,74.83
2023-03-06T09:21:38.094Z,74.58
2023-03-06T09:24:04.896Z,74.42
2023-03-06T09:26:45.074Z,74.50
2023-03-06T09:29:13.101Z,74.47
2023-03-06T09:31:39.871Z,74.11
2023-03-06T09:34:06.576Z,73.97
2023-03-06T09:36:42.735Z,74.04
2023-03-06T09:39:16.136Z,74.05
2023-03-06T09:41:43.085Z,73.45
2023-03-06T09:44:26.130Z,73.16
2023-03-06T09:47:15.342Z,73.05
2023-03-06T09:50:05.557Z,73.11
2023-03-06T09:53:02.747Z,73.06
2023-03-06T09:55:32.804Z,73.15
2023-03-06T09:58:21.420Z,72.73
2023-03-06T10:01:02.804Z,72.55
2023-03-06T10:03:51.080Z,72.96
2023-03-06T10:06:31.366Z,72.38
2023-03-06T10:08:59.035Z,72.51
2023-03-06T10:11:34.756Z,72.48
2023-03-06T10:14:16.397Z,72.34
2023-03-06T10:16:43.109Z,72.14
2023-03-06T10:19:15.903Z,71.97
2023-03-06T10:21:53.447Z,71.61
2023-03-06T10:24:47.325Z,71.40
2023-03-06T10:27:46.709Z,71.37
2023-03-06T10:30:51.032Z,71.15
2023-03-06T10:33:46.668Z,71.26
2023-03-06T10:36:18.304Z,71.75
2023-03-06T10:38:45.850Z,71.79
2023-03-06T10:41:12.535Z,71.44
2023-03-06T10:43:43.249Z,71.36
2023-03-06T10:46:12.995Z,71.45
2023-03-06T10:48:42.318Z,71.00
2023-03-06T10:51:18.591Z,70.68
2023-03-06T10:54:14.130Z,70.14
2023-03-06T10:56:45.457Z,70.90
2023-03-06T10:59:13.021Z,70.85
2023-03-06T11:01:42.290Z,71.04
2023-03-06T11:04:21.951Z,70.66
2023-03-06T11:06:49.328Z,70.83
2023-03-06T11:09:18.630Z,70.62
2023-03-06T11:11:45.259Z,70.83
2023-03-06T11:14:17.897Z,70.05
2023-03-06T11:16:53.077Z,69.99
2023-03-06T11:19:23.977Z,70.48
2023-03-06T11:22:30.589Z,69.74
2023-03-06T11:24:58.378Z,70.18
2023-03-06T11:27:34.528Z,69.83
2023-03-06T11:30:11.106Z,70.01
2023-03-06T11:32:52.392Z,69.87
2023-03-06T11:35:29.061Z,69.99
2023-03-06T11:38:00.765Z,70.50
2023-03-06T11:40:59.257Z,70.07
2023-03-06T11:43:55.914Z,69.75
2023-03-06T11:46:22.930Z,69.82
2023-03-06T11:48:53.595Z,69.62
2023-03-06T11:51:40.378Z,69.64
2023-03-06T11:54:09.610Z,69.44
2023-03-06T11:56:53.843Z,69.46
2023-03-06T11:59:33.551Z,69.78
2023-03-06T12:02:51.737Z,69.47
2023-03-06T12:05:26.443Z,69.83
2023-03-06T12:08:20.095Z,69.98
2023-03-06T12:11:13.470Z,70.02
2023-03-06T12:13:48.111Z,70.36
2023-03-06T12:16:52.623Z,69.72
2023-03-06T12:26:22.265Z,71.37
2023-03-06T12:45:03.962Z,71.85
2023-03-06T12:47:34.298Z,72.03
2023-03-06T12:50:13.620Z,72.38
2023-03-06T12:52:41.410Z,72.89
2023-03-06T12:55:13.247Z,73.49
2023-03-06T12:57:41.690Z,73.93
2023-03-06T13:00:29.991Z,74.06
2023-03-06T13:03:15.166Z,76.34
2023-03-06T13:05:56.696Z,76.53
2023-03-06T13:08:33.860Z,76.54
2023-03-06T13:11:22.039Z,76.83
2023-03-06T13:13:48.910Z,76.32
2023-03-06T13:16:18.329Z,77.57
2023-03-06T13:18:49.120Z,77.12
2023-03-06T13:21:41.828Z,78.24
2023-03-06T13:24:31.721Z,79.31
2023-03-06T13:27:02.863Z,77.93
2023-03-06T13:29:50.654Z,79.69
2023-03-06T13:32:19.398Z,77.91
2023-03-06T13:34:48.552Z,78.53
2023-03-06T13:37:22.961Z,78.37
2023-03-06T13:39:55.666Z,78.59
2023-03-06T13:42:42.082Z,79.18
2023-03-06T13:45:32.451Z,78.50
2023-03-06T13:48:27.229Z,78.09
2023-03-06T13:50:48.155Z,78.34
2023-03-06T13:53:20.821Z,78.92
2023-03-06T13:56:06.362Z,78.17
2023-03-06T13:58:53.043Z,78.97
2023-03-06T14:01:53.860Z,78.84
2023-03-06T14:04:27.165Z,77.94
2023-03-06T14:07:12.566Z,79.83
2023-03-06T14:09:44.585Z,78.20
2023-03-06T14:12:23.606Z,78.27
2023-03-06T14:14:56.767Z,77.50
2023-03-06T14:17:49.228Z,77.03
2023-03-06T14:20:18.713Z,77.32
2023-03-06T14:22:45.439Z,77.19
2023-03-06T14:25:24.164Z,77.18
2023-03-06T14:27:53.558Z,76.91
2023-03-06T14:30:25.230Z,77.03
2023-03-06T14:32:54.157Z,77.10
2023-03-06T14:35:28.179Z,77.30
2023-03-06T14:38:01.548Z,77.22
2023-03-06T14:40:32.079Z,78.82
2023-03-06T14:43:21.992Z,78.08
2023-03-06T14:45:56.146Z,77.62
2023-03-06T14:48:27.107Z,77.28
2023-03-06T14:50:57.705Z,77.12
2023-03-06T14:53:28.414Z,76.89
2023-03-06T14:55:57.977Z,77.52
2023-03-06T14:58:49.736Z,78.36
2023-03-06T15:01:16.859Z,77.49
2023-03-06T15:03:55.295Z,78.24
2023-03-06T15:06:38.886Z,78.07
2023-03-06T15:09:16.845Z,77.64
2023-03-06T15:12:03.059Z,79.30
2023-03-06T15:14:36.320Z,78.68
2023-03-06T15:17:15.211Z,80.36
2023-03-06T15:19:41.902Z,78.10
2023-03-06T15:22:27.236Z,80.02
2023-03-06T15:24:54.453Z,79.25
2023-03-06T15:27:27.404Z,81.70
2023-03-06T15:30:13.112Z,81.58
2023-03-06T15:32:42.501Z,80.96
2023-03-06T15:35:24.521Z,82.07
2023-03-06T15:37:52.295Z,80.98
2023-03-06T15:40:21.925Z,81.31
2023-03-06T15:42:52.119Z,81.52
2023-03-06T15:45:21.726Z,81.33
2023-03-06T15:47:50.325Z,82.71
2023-03-06T15:50:26.297Z,83.55
2023-03-06T15:52:53.464Z,82.86
2023-03-06T15:55:25.529Z,82.58
2023-03-06T15:57:57.498Z,83.06
2023-03-06T16:00:29.847Z,82.33
2023-03-06T16:02:57.989Z,82.26
2023-03-06T16:05:26.292Z,82.23
2023-03-06T16:07:53.120Z,82.19
2023-03-06T16:10:23.720Z,82.06
2023-03-06T16:13:02.285Z,83.32
2023-03-06T16:15:29.553Z,82.76
2023-03-06T16:18:00.111Z,83.41
2023-03-06T16:20:28.139Z,82.87
2023-03-06T16:22:54.957Z,82.95
2023-03-06T16:25:24.080Z,83.19
2023-03-06T16:27:55.448Z,83.39
2023-03-06T16:30:23.169Z,83.27
2023-03-06T16:32:49.842Z,83.47
2023-03-06T16:35:20.132Z,83.15
2023-03-06T16:37:47.296Z,82.95
2023-03-06T16:40:22.162Z,83.36
2023-03-06T16:42:49.965Z,83.37
2023-03-06T16:45:18.240Z,83.25
2023-03-06T16:47:46.241Z,83.38
2023-03-06T16:50:24.415Z,83.99
2023-03-06T16:52:52.401Z,83.96
2023-03-06T16:55:19.416Z,84.22
2023-03-06T16:57:46.554Z,84.59
2023-03-06T17:00:14.062Z,84.86
2023-03-06T17:02:40.746Z,85.06
2023-03-06T17:05:09.276Z,84.91
2023-03-06T17:07:37.470Z,85.58
2023-03-06T17:10:05.449Z,85.12
2023-03-06T17:12:32.158Z,85.19
2023-03-06T17:14:58.878Z,85.42
2023-03-06T17:17:25.600Z,85.77
2023-03-06T17:19:52.740Z,85.83
2023-03-06T17:22:19.987Z,85.65
2023-03-06T17:24:52.088Z,85.78
2023-03-06T17:27:21.166Z,86.13
2023-03-06T17:29:48.353Z,85.99
2023-03-06T17:32:15.203Z,86.11
2023-03-06T17:34:42.122Z,86.10
2023-03-06T17:37:09.242Z,86.17
2023-03-06T17:39:37.625Z,86.18
2023-03-06T17:42:05.462Z,85.89
2023-03-06T17:44:34.574Z,86.06
2023-03-06T17:47:02.009Z,86.43
2023-03-06T17:49:28.888Z,86.75
2023-03-06T17:51:56.924Z,86.86
2023-03-06T17:54:26.150Z,86.74
2023-03-06T17:56:53.688Z,86.96
2023-03-06T17:59:20.423Z,86.85
2023-03-06T18:01:47.311Z,87.06
2023-03-06T18:04:14.098Z,87.15
2023-03-06T18:06:40.801Z,86.93
2023-03-06T18:09:09.966Z,86.43
2023-03-06T18:11:37.419Z,86.31
2023-03-06T18:14:05.532Z,85.39
2023-03-06T18:16:32.511Z,85.67
2023-03-06T18:18:59.358Z,84.33
2023-03-06T18:21:26.309Z,83.46
2023-03-06T18:23:53.276Z,83.07
2023-03-06T18:26:23.164Z,82.71
2023-03-06T18:28:54.366Z,82.57
2023-03-06T18:31:30.471Z,82.26
2023-03-06T18:34:00.121Z,81.27
2023-03-06T18:36:29.376Z,81.07
2023-03-06T18:38:56.541Z,81.50
2023-03-06T18:41:23.465Z,81.08
2023-03-06T18:43:59.127Z,80.63
2023-03-06T18:46:30.009Z,80.41
2023-03-06T18:48:56.763Z,80.83
2023-03-06T18:51:25.619Z,79.98
2023-03-06T18:53:52.314Z,80.42
2023-03-06T18:56:21.647Z,80.35
2023-03-06T18:58:48.911Z,80.96
2023-03-06T19:01:15.724Z,80.86
2023-03-06T19:03:42.912Z,80.56
2023-03-06T19:06:12.184Z,80.67
2023-03-06T19:08:39.838Z,80.87
2023-03-06T19:11:08.900Z,80.78
2023-03-06T19:13:36.008Z,80.27
2023-03-06T19:16:03.199Z,79.68
2023-03-06T19:18:30.316Z,79.87
2023-03-06T19:21:08.412Z,79.67
2023-03-06T19:23:35.154Z,79.98
2023-03-06T19:26:01.944Z,79.94
2023-03-06T19:28:28.785Z,79.82
2023-03-06T19:30:55.872Z,79.78
2023-03-06T19:33:22.744Z,79.74
2023-03-06T19:35:49.599Z,79.57
2023-03-06T19:38:16.473Z,79.80
2023-03-06T19:40:50.112Z,80.31
2023-03-06T19:43:17.037Z,80.11
2023-03-06T19:45:44.579Z,80.14
2023-03-06T19:48:12.564Z,79.68
2023-03-06T19:50:40.250Z,79.94
2023-03-06T19:53:07.843Z,79.65
2023-03-06T19:55:34.818Z,79.20
2023-03-06T19:58:01.502Z,79.75
2023-03-06T20:00:28.439Z,79.76
2023-03-06T20:02:55.713Z,79.49
2023-03-06T20:05:22.520Z,79.26
2023-03-06T20:07:49.963Z,78.71
2023-03-06T20:10:17.132Z,78.79
2023-03-06T20:12:44.030Z,78.31
2023-03-06T20:15:11.011Z,78.87
2023-03-06T20:17:40.524Z,78.28
2023-03-06T20:20:09.623Z,78.78
2023-03-06T20:22:36.410Z,78.35
2023-03-06T20:25:03.772Z,78.70
2023-03-06T20:27:30.469Z,78.35
2023-03-06T20:29:57.312Z,78.37
2023-03-06T20:32:24.059Z,78.45
2023-03-06T20:34:50.904Z,78.39
2023-03-06T20:37:17.611Z,77.95
2023-03-06T20:39:44.709Z,78.25
2023-03-06T20:42:11.506Z,77.86
2023-03-06T20:44:38.302Z,77.42
2023-03-06T20:47:05.636Z,76.95
2023-03-06T20:49:32.463Z,77.00
2023-03-06T20:51:59.176Z,76.46
2023-03-06T20:54:25.939Z,75.77
2023-03-06T20:56:52.626Z,76.48
2023-03-06T20:59:19.440Z,76.33
2023-03-06T21:01:47.908Z,76.69
2023-03-06T21:04:15.214Z,76.88
2023-03-06T21:06:46.145Z,76.39
2023-03-06T21:09:14.817Z,76.67
2023-03-06T21:11:41.591Z,76.82
2023-03-06T21:14:08.361Z,76.75
2023-03-06T21:16:35.924Z,76.82
2023-03-06T21:19:02.745Z,76.50
2023-03-06T21:21:31.855Z,76.80
2023-03-06T21:24:01.038Z,77.16
2023-03-06T21:26:30.126Z,76.89
2023-03-06T21:28:58.774Z,76.79
2023-03-06T21:31:26.229Z,76.88
2023-03-06T21:33:53.002Z,76.78
2023-03-06T21:36:21.670Z,76.68
2023-03-06T21:38:49.948Z,76.54
2023-03-06T21:41:24.123Z,76.85
2023-03-06T21:44:02.134Z,76.70
2023-03-06T21:46:29.070Z,76.85
2023-03-06T21:48:56.215Z,77.17
2023-03-06T21:51:23.681Z,76.96
2023-03-06T21:53:51.265Z,76.87
2023-03-06T21:56:19.954Z,76.10
2023-03-06T21:58:47.127Z,76.04
2023-03-06T22:01:17.234Z,76.28
2023-03-06T22:03:44.133Z,75.81
2023-03-06T22:06:12.949Z,75.52
2023-03-06T22:08:40.395Z,75.36
2023-03-06T22:11:12.956Z,74.73
2023-03-06T22:13:39.910Z,75.12
2023-03-06T22:16:06.913Z,75.20
2023-03-06T22:18:33.912Z,74.55
2023-03-06T22:21:00.672Z,74.51
2023-03-06T22:23:27.461Z,74.47
2023-03-06T22:25:54.377Z,74.33
2023-03-06T22:28:21.128Z,74.15
2023-03-06T22:30:48.162Z,73.64
2023-03-06T22:33:14.850Z,73.74
2023-03-06T22:35:41.604Z,73.30
2023-03-06T22:38:08.497Z,73.26
2023-03-06T22:40:35.343Z,73.00
2023-03-06T22:43:02.406Z,73.35
2023-03-06T22:45:29.406Z,72.89
2023-03-06T22:48:05.581Z,73.10
2023-03-06T22:50:37.201Z,72.42
2023-03-06T22:53:03.858Z,72.61
2023-03-06T22:55:30.660Z,73.09
2023-03-06T22:57:57.518Z,73.06
2023-03-06T23:00:25.601Z,73.32
2023-03-06T23:02:52.682Z,73.28
2023-03-06T23:05:19.391Z,73.81
2023-03-06T23:07:46.107Z,73.55
2023-03-06T23:10:12.946Z,73.64
2023-03-06T23:12:58.295Z,73.63
2023-03-06T23:15:44.008Z,73.88
2023-03-06T23:18:30.191Z,73.75
2023-03-06T23:21:17.386Z,73.32
2023-03-06T23:24:02.987Z,73.03
2023-03-06T23:26:30.801Z,73.13
2023-03-06T23:28:58.002Z,72.77
2023-03-06T23:31:28.779Z,72.18
2023-03-06T23:34:00.558Z,72.08
2023-03-06T23:36:27.859Z,72.19
2023-03-06T23:38:54.907Z,72.20
2023-03-06T23:41:22.985Z,72.26
2023-03-06T23:43:50.002Z,71.84
2023-03-06T23:46:17.148Z,71.83
2023-03-06T23:48:44.605Z,71.61
2023-03-06T23:51:17.776Z,71.31
2023-03-06T23:53:45.440Z,71.63
2023-03-06T23:56:12.138Z,71.82
2023-03-06T23:58:39.156Z,71.77
